Accueil
METAR-TAF:

METAR-TAF

Aéroports :

Odiham, Angleterre

latitude: 51-14N, longitude: 000-57W, altitude: 123 m

Observation

Le bulletin a été fait il y a 57 minutes, à 07:50 UTC
Vent 4 kt de ouest
Température 15°C
Humidité 77%
Pression 1021 hPa
Visibilité 10 km ou plus
Quelques nuages à une hauteur de 800 ft
Nuages fragmentés à une hauteur de 2800 ft
Nuages fragmentés à une hauteur de 4500 ft

METAR: EGVO 230750Z 26004KT 9999 FEW008 BKN028 BKN045 15/11 Q1021 BLU TEMPO SCT017 WHT

Heure: 09:47 (08:47 UTC)

Prévision

Le bulletin a été fait il y a 1 heure et 10 minutes, à 07:37 UTC
Prévision valable du 23 à 09 UTC au 23 à 21 UTC
Vent 8 kt de ouest
Visibilité 10 km ou plus
Nuages fragmentés à une hauteur de 3500 ft
Temporairement
du 23 à 09 UTC au 23 à 17 UTC
Nuages épars à une hauteur de 2000 ft

TAF: EGVO 230737Z 2309/2321 28008KT 9999 BKN035 TEMPO 2309/2317 SCT020

Observations et prévisions météorologiques de plus de 4000 aéroports (messages METAR et TAF).

Les stations disponibles sont représentées par des disques jaunes et rouges sur la carte.

Passer la souris dessus pour voir le nom de la station.

Cliquer dessus pour voir les observations et prévisions météorologiques.

Pour changer de carte: cliquez sur les boutons verts avec une croix noire pour zoomer, sur le bouton vert avec un tiret pour effectuer un zoom arrière, ou sur les flèches vertes pour les cartes adjacentes.


METAR-TAF: